Tiempo atmosférico en la estación meteorológica de La Póveda de Soria, Barriomartín, Soria (1260 m.)



Fecha
DESCASC
Temp. máxima en grados centígrados (hora)
DESCASC
Temp. mínima en grados centígrados (hora)
DESCASC
Temp. media en grados centígrados
DESCASC
Racha de viento máxima en m/sg (hora)
DESCASC
Velocidad máxima media en intervalos de 10 minutos(hora)
DESCASC
Precipitaciones diarias en mm
DESCASC
Precipitaciones de 00:00 a 06:00 en mm
DESCASC
Precipitaciones de 06:00 a 12:00 en mm
DESCASC
Precipitaciones de 12:00 a 18:00 en mm
DESCASC
Precipitaciones de 18:00 a 24:00 en mm
DESCASC
18-08-2019 31 (16:50) 10.8 (07:00) 20.9 10.83 (16:10) 5.56 (13:00) 0 0 0 0 0
17-08-2019 32.8 (16:20) 12.3 (07:10) 22.5 10.56 (16:40) 5.28 (16:00) 0 0 0 0 0
16-08-2019 31.6 (16:30) 9.9 (06:30) 20.8 9.44 (13:40) 5.56 (00:10) 0 0 0 0 0
15-08-2019 25.3 (15:40) 10.8 (00:00) 18 10 (21:40) 6.94 (21:50) 0 0 0 0 0
14-08-2019 27.8 (17:40) 6.4 (00:00) 17.1 7.78 (20:20) 4.44 (01:00) 0 0 0 0 0
13-08-2019 22.1 (15:10) 8.1 (00:00) 15.1 11.39 (02:40) 6.67 (02:40) 0 0 0 0 0
12-08-2019 17.4 (16:30) 8.1 (00:00) 12.8 11.39 (10:30) 6.94 (09:00) 0 0 0 0 0
11-08-2019 24.1 (13:40) 11.5 (00:00) 17.8 10.28 (07:10) 6.39 (07:10) 0.6 0 0.6 0 0
10-08-2019 27.7 (18:00) 7.5 (00:00) 17.6 8.61 (17:20) 4.72 (17:20) 0.6 0 0 0 0.6
09-08-2019 28.2 (13:30) 15.8 (00:00) 22 12.78 (21:50) 6.39 (21:50) 0 0 0 0 0
08-08-2019 29.6 (19:00) 11.8 (00:00) 20.7 9.44 (12:30) 5.28 (12:40) 0 0 0 0 0
07-08-2019 24.9 (11:10) 15.3 (00:00) 20.1 9.17 (11:00) 5 (12:50) 0 0 0 0 0
06-08-2019 30.8 (16:10) 13.2 (00:00) 22 9.17 (15:30) 5.28 (13:10) 0 0 0 0 0
05-08-2019 31.9 (16:50) 13.1 (00:00) 22.5 8.89 (16:10) 4.17 (16:20) 0 0 0 0 0
04-08-2019 32.5 (17:40) 13 (00:00) 22.8 10 (15:10) 5.28 (14:20) 0 0 0 0 0
03-08-2019 32.6 (16:50) 11.9 (00:00) 22.2 8.89 (15:40) 4.72 (14:00) 0 0 0 0 0
02-08-2019 29.1 (14:50) 11.3 (00:00) 20.2 8.06 (19:00) 4.72 (20:40) 0 0 0 0 0
01-08-2019 29.1 (17:00) 13.3 (00:00) 21.2 8.89 (18:30) 4.72 (21:10) 0 0 0 0 0
31-07-2019 25.9 (17:20) 7.6 (00:00) 16.7 8.61 (19:10) 5.83 (00:40) 0 0 0 0 0
30-07-2019 19.7 (13:50) 10.4 (00:00) 15.1 10 (00:40) 6.39 (00:30) 0 0 0 0 0
29-07-2019 27.6 (17:30) 7.7 (00:00) 17.7 10.28 (15:30) 5.28 (14:40) 0 0 0 0 0
28-07-2019 24.2 (18:20) 9 (00:00) 16.6 11.11 (03:30) 6.67 (03:30) 0.2 0 0.2 0 0
27-07-2019 16.9 (14:00) 10.2 (00:00) 13.5 10.83 (21:10) 6.67 (21:20) 7.2 0 0 7.2 0
26-07-2019 23.1 (14:50) 13.3 (00:00) 18.2 10 (15:00) 5 (18:10) 4 1 0.8 1.6 0.6
25-07-2019 32.1 (16:50) 13.4 (00:00) 22.7 11.39 (16:00) 6.39 (16:00) 0 0 0 0 0
24-07-2019 32.6 (17:20) 13.6 (00:00) 23.1 10.83 (16:30) 5.56 (16:30) 0 0 0 0 0
23-07-2019 33 (17:50) 12.7 (00:00) 22.8 10 (18:50) 5 (15:10) 0 0 0 0 0
22-07-2019 32 (17:10) 13.8 (00:00) 22.9 9.44 (19:50) 5.56 (19:50) 0 0 0 0 0
21-07-2019 31 (17:30) 13.7 (00:00) 22.3 17.22 (20:30) 10.28 (20:30) 8 0 0 0 8

Gráficas

Temp. máximas Temp. mínimas Temp. medias Precipitaciones Rachas de viento máximas Velocidades máximas media en intervalos de 10 minutos

Datos horarios

Fecha y hora oficial Temperatura (ºC) Velocidad del viento (km/h) Dirección del viento Racha (km/h) Dirección de racha Precipitación (mm) Presión (hPa) Tendencia (hPa) Humedad (%)
2019-08-19 23:00:00 12.8 15 Norte 26 Norte 0 -- -- 88
2019-08-19 22:00:00 13.6 13 Norte 22 Norte 0 -- -- 84
2019-08-19 21:00:00 14.6 5 Norte 16 Nordeste 0 -- -- 79
2019-08-19 20:00:00 14.9 0 Calma 46 Noroeste 0.6 -- -- 80
2019-08-19 19:00:00 16.4 13 Noroeste 32 Oeste 0 -- -- 71
2019-08-19 18:00:00 18.3 11 Norte 22 Noroeste 0 -- -- 63
2019-08-19 17:00:00 17.7 17 Norte 28 Norte 0 -- -- 68
2019-08-19 16:00:00 19.7 4 Noroeste 19 Este 0 -- -- 58
2019-08-19 15:00:00 18.5 8 Este 19 Sudeste 0 -- -- 62
2019-08-19 14:00:00 20.9 12 Este 22 Este 0 -- -- 57
2019-08-19 13:00:00 19.4 8 Noroeste 18 Noroeste 0 -- -- 62
2019-08-19 12:00:00 19.5 11 Noroeste 19 Noroeste 0 -- -- 62
2019-08-19 11:00:00 16.6 8 Norte 19 Norte 0 -- -- 71
2019-08-19 10:00:00 15 14 Norte 28 Norte 0 -- -- 76
2019-08-19 09:00:00 13.3 21 Norte 30 Norte 0 -- -- 82
2019-08-19 08:00:00 12.1 19 Norte 31 Norte 0 -- -- 86
2019-08-19 07:00:00 11.9 17 Norte 28 Norte 0 -- -- 87
2019-08-19 06:00:00 12.4 17 Norte 28 Norte 0 -- -- 87
2019-08-19 05:00:00 12.7 17 Norte 35 Norte 0 -- -- 88
2019-08-19 04:00:00 12.8 19 Norte 31 Norte 0 -- -- 88
2019-08-19 03:00:00 12.9 22 Norte 35 Norte 0 -- -- 89
2019-08-19 02:00:00 13.6 21 Norte 37 Norte 0 -- -- 88
2019-08-19 01:00:00 14.3 17 Norte 31 Norte 0 -- -- 86
2019-08-19 00:00:00 15.1 16 Norte 27 Norte 0 -- -- 83
2019-08-18 23:00:00 15.5 17 Norte 27 Norte 0 -- -- 82
2019-08-18 22:00:00 17.2 19 Norte 28 Noroeste 0 -- -- 78
2019-08-18 21:00:00 19.6 14 Norte 24 Norte 0 -- -- 68
2019-08-18 20:00:00 24.2 12 Este 23 Oeste 0 -- -- 54
2019-08-18 19:00:00 29 16 Oeste 33 Oeste 0 -- -- 19
2019-08-18 18:00:00 29.6 20 Oeste 37 Sudoeste 0 -- -- 18
2019-08-18 17:00:00 31 16 Sudoeste 39 Sudoeste 0 -- -- 21
2019-08-18 16:00:00 29.5 17 Sudoeste 33 Sur 0 -- -- 20
2019-08-18 15:00:00 28.4 16 Sudoeste 29 Sudoeste 0 -- -- 26
2019-08-18 14:00:00 27.8 15 Sudoeste 33 Sudoeste 0 -- -- 29
2019-08-18 13:00:00 27.9 20 Sudoeste 37 Sudoeste 0 -- -- 29
2019-08-18 12:00:00 27.8 16 Sudoeste 27 Sudoeste 0 -- -- 31
2019-08-18 11:00:00 24.9 11 Sur 17 Sudeste 0 -- -- 37
2019-08-18 10:00:00 22.2 5 Sudeste 9 Sudeste 0 -- -- 40
2019-08-18 09:00:00 18 2 Sur 12 Norte 0 -- -- 49
2019-08-18 08:00:00 11.4 8 Norte 12 Norte 0 -- -- 66
2019-08-18 07:00:00 10.8 8 Norte 12 Norte 0 -- -- 65
2019-08-18 06:00:00 11.9 6 Norte 12 Norte 0 -- -- 61
2019-08-18 05:00:00 12.5 9 Norte 12 Norte 0 -- -- 58
2019-08-18 04:00:00 14.4 9 Norte 12 Norte 0 -- -- 50
2019-08-18 03:00:00 14.8 9 Norte 14 Norte 0 -- -- 48
2019-08-18 02:00:00 16.2 10 Norte 17 Norte 0 -- -- 46
2019-08-18 01:00:00 16.5 8 Norte 15 Noroeste 0 -- -- 51
2019-08-18 00:00:00 17.5 11 Norte 17 Norte 0 -- -- 48
2019-08-17 23:00:00 18.3 8 Norte 13 Norte 0 -- -- 47
2019-08-17 22:00:00 22.1 4 Norte 15 Noroeste 0 -- -- 43
2019-08-17 21:00:00 24.4 6 Norte 13 Noroeste 0 -- -- 33
2019-08-17 20:00:00 29.4 8 Oeste 23 Oeste 0 -- -- 25
2019-08-17 19:00:00 31.7 9 Sudoeste 32 Sur 0 -- -- 23
2019-08-17 18:00:00 32.6 11 Sudoeste 37 Sudoeste 0 -- -- 20
2019-08-17 17:00:00 32.7 12 Sudoeste 38 Sudoeste 0 -- -- 19
2019-08-17 16:00:00 32.4 19 Sudoeste 37 Sudoeste 0 -- -- 20
2019-08-17 15:00:00 31.3 14 Sudoeste 32 Sudoeste 0 -- -- 25
2019-08-17 14:00:00 30.2 14 Sudoeste 32 Sudoeste 0 -- -- 26
2019-08-17 13:00:00 29.8 14 Sudoeste 28 Sudoeste 0 -- -- 27
2019-08-17 12:00:00 28.3 15 Sudoeste 26 Sudoeste 0 -- -- 30
2019-08-17 11:00:00 25.5 8 Sur 18 Sudeste 0 -- -- 39
2019-08-17 10:00:00 23.3 6 Sur 12 Sur 0 -- -- 48
2019-08-17 09:00:00 18 3 Norte 12 Norte 0 -- -- 66
2019-08-17 08:00:00 13 6 Norte 11 Noroeste 0 -- -- 78
2019-08-17 07:00:00 12.7 8 Norte 12 Norte 0 -- -- 76
2019-08-17 06:00:00 12.7 7 Norte 11 Norte 0 -- -- 76
2019-08-17 05:00:00 13.6 8 Norte 17 Norte 0 -- -- 73
2019-08-17 04:00:00 14.6 13 Norte 17 Norte 0 -- -- 69
2019-08-17 03:00:00 14.7 9 Norte 14 Norte 0 -- -- 68
2019-08-17 02:00:00 15 9 Norte 15 Norte 0 -- -- 68
2019-08-17 01:00:00 15.5 9 Norte 13 Norte 0 -- -- 66
2019-08-17 00:00:00 15.9 8 Norte 12 Norte 0 -- -- 65
2019-08-16 23:00:00 17.2 6 Norte 11 Norte 0 -- -- 60
2019-08-16 22:00:00 19.2 8 Norte 12 Norte 0 -- -- 54
2019-08-16 21:00:00 23.1 9 Noroeste 21 Nordeste 0 -- -- 42
2019-08-16 20:00:00 25.8 15 Nordeste 25 Nordeste 0 -- -- 36
2019-08-16 19:00:00 27.7 13 Nordeste 31 Este 0 -- -- 34
2019-08-16 18:00:00 29.9 13 Sudeste 31 Sur 0 -- -- 31
2019-08-16 17:00:00 30 10 Oeste 25 Sudoeste 0 -- -- 28
2019-08-16 16:00:00 31.1 13 Sudoeste 29 Sudoeste 0 -- -- 29
2019-08-16 15:00:00 29.8 13 Sudoeste 30 Oeste 0 -- -- 31
2019-08-16 14:00:00 27.8 5 Sudeste 34 Oeste 0 -- -- 35
2019-08-16 13:00:00 26.8 11 Sur 29 Sudeste 0 -- -- 39
2019-08-16 12:00:00 24.8 15 Sudeste 23 Sudeste 0 -- -- 42
2019-08-16 11:00:00 23.9 9 Sudeste 17 Sudeste 0 -- -- 44
2019-08-16 10:00:00 21.5 6 Sudeste 11 Sudeste 0 -- -- 48
2019-08-16 09:00:00 16 5 Norte 13 Norte 0 -- -- 68
2019-08-16 08:00:00 11.3 6 Norte 11 Norte 0 -- -- 85
2019-08-16 07:00:00 10 8 Norte 11 Norte 0 -- -- 86
2019-08-16 06:00:00 10 6 Norte 9 Norte 0 -- -- 83
2019-08-16 05:00:00 10.2 6 Norte 9 Norte 0 -- -- 78
2019-08-16 04:00:00 10.7 5 Norte 9 Norte 0 -- -- 71
2019-08-16 03:00:00 12.2 6 Norte 10 Norte 0 -- -- 64
2019-08-16 02:00:00 15.1 3 Noroeste 24 Norte 0 -- -- 53
2019-08-16 01:00:00 16.3 18 Norte 27 Norte 0 -- -- 54
2019-08-16 00:00:00 16.7 19 Norte 28 Norte 0 -- -- 58
2019-08-15 23:00:00 16.5 17 Norte 32 Norte 0 -- -- 60
2019-08-15 22:00:00 16.5 23 Norte 36 Norte 0 -- -- 65
2019-08-15 21:00:00 17.9 20 Norte 35 Norte 0 -- -- 59
2019-08-15 20:00:00 19.8 14 Norte 31 Norte 0 -- -- 55
2019-08-15 19:00:00 21.4 17 Norte 30 Norte 0 -- -- 54
2019-08-15 18:00:00 22.9 13 Nordeste 31 Nordeste 0 -- -- 54
2019-08-15 17:00:00 24.1 13 Nordeste 28 Nordeste 0 -- -- 50
2019-08-15 16:00:00 24.3 13 Este 26 Nordeste 0 -- -- 48
2019-08-15 15:00:00 24.6 7 Nordeste 22 Este 0 -- -- 46
2019-08-15 14:00:00 24.3 8 Sudeste 19 Sudoeste 0 -- -- 48
2019-08-15 13:00:00 22 7 Nordeste 16 Norte 0 -- -- 54
2019-08-15 12:00:00 24.4 7 Sur 16 Sur 0 -- -- 45
2019-08-15 11:00:00 21.5 7 Sudeste 14 Sudeste 0 -- -- 53
2019-08-15 10:00:00 18.9 8 Norte 21 Norte 0 -- -- 63
2019-08-15 09:00:00 16.6 10 Norte 21 Norte 0 -- -- 73
2019-08-15 08:00:00 14.2 16 Norte 25 Norte 0 -- -- 80
2019-08-15 07:00:00 13.7 13 Norte 30 Norte 0 -- -- 81
2019-08-15 06:00:00 13.7 18 Norte 28 Norte 0 -- -- 78
2019-08-15 05:00:00 11.1 6 Norte 14 Norte 0 -- -- 82
2019-08-15 04:00:00 11.4 6 Norte 9 Norte 0 -- -- 80
2019-08-15 03:00:00 12.8 4 Norte 18 Norte 0 -- -- 74
2019-08-15 02:00:00 14.4 12 Norte 18 Noroeste 0 -- -- 72
2019-08-15 01:00:00 15.5 9 Norte 25 Noroeste 0 -- -- 68
2019-08-15 00:00:00 16.3 12 Norte 20 Norte 0 -- -- 65
2019-08-14 23:00:00 17.4 9 Norte 16 Norte 0 -- -- 60
2019-08-14 22:00:00 18.9 6 Norte 19 Nordeste 0 -- -- 53
2019-08-14 21:00:00 21.1 10 Nordeste 28 Este 0 -- -- 47
2019-08-14 20:00:00 23.9 13 Nordeste 26 Nordeste 0 -- -- 35
2019-08-14 19:00:00 26.3 14 Norte 24 Noroeste 0 -- -- 32
2019-08-14 18:00:00 27.6 9 Noroeste 25 Noroeste 0 -- -- 31
2019-08-14 17:00:00 27.4 10 Norte 23 Nordeste 0 -- -- 30
2019-08-14 16:00:00 27.4 8 Este 20 Este 0 -- -- 29
2019-08-14 15:00:00 26.9 8 Sur 25 Sur 0 -- -- 29
2019-08-14 14:00:00 25.3 11 Sudeste 25 Este 0 -- -- 32
2019-08-14 13:00:00 24.9 9 Sur 21 Sur 0 -- -- 32
2019-08-14 12:00:00 23.7 6 Sur 22 Sur 0 -- -- 35
2019-08-14 11:00:00 21 6 Sur 14 Sudeste 0 -- -- 39
2019-08-14 10:00:00 18.3 5 Sur 8 Sudeste 0 -- -- 45
2019-08-14 09:00:00 13.3 4 Norte 11 Norte 0 -- -- 61
2019-08-14 08:00:00 7.7 8 Norte 12 Norte 0 -- -- 76
2019-08-14 07:00:00 6.6 5 Norte 11 Norte 0 -- -- 78
2019-08-14 06:00:00 7.3 5 Norte 12 Norte 0 -- -- 76
2019-08-14 05:00:00 7.6 9 Norte 12 Norte 0 -- -- 74
2019-08-14 04:00:00 8.2 8 Norte 17 Norte 0 -- -- 69
2019-08-14 03:00:00 9.8 9 Norte 13 Norte 0 -- -- 63
2019-08-14 02:00:00 11.3 6 Norte 21 Noroeste 0 -- -- 59
2019-08-14 01:00:00 12.6 16 Norte 22 Norte 0 -- -- 55
2019-08-14 00:00:00 12.1 15 Norte 23 Nordeste 0 -- -- 66
2019-08-13 23:00:00 12.2 10 Norte 20 Norte 0 -- -- 69
2019-08-13 22:00:00 13.8 6 Norte 15 Nordeste 0 -- -- 61
2019-08-13 21:00:00 15.2 12 Norte 23 Noroeste 0 -- -- 54
2019-08-13 20:00:00 17.7 15 Norte 26 Norte 0 -- -- 45
2019-08-13 19:00:00 19.4 15 Norte 30 Noroeste 0 -- -- 43
2019-08-13 18:00:00 20.7 18 Norte 31 Norte 0 -- -- 40
2019-08-13 17:00:00 21.8 10 Norte 24 Norte 0 -- -- 36
2019-08-13 16:00:00 21.6 7 Nordeste 26 Este 0 -- -- 36
2019-08-13 15:00:00 21.3 6 Norte 15 Norte 0 -- -- 39
2019-08-13 14:00:00 20.1 7 Noroeste 18 Noroeste 0 -- -- 38
2019-08-13 13:00:00 18.7 8 Norte 17 Noroeste 0 -- -- 44
2019-08-13 12:00:00 16.2 9 Nordeste 21 Norte 0 -- -- 48
2019-08-13 11:00:00 14.3 10 Norte 22 Nordeste 0 -- -- 52
2019-08-13 10:00:00 12.6 14 Norte 25 Norte 0 -- -- 57
2019-08-13 09:00:00 10.7 17 Norte 26 Norte 0 -- -- 60
2019-08-13 08:00:00 8.6 12 Norte 19 Norte 0 -- -- 68
2019-08-13 07:00:00 8.3 9 Norte 17 Norte 0 -- -- 71
2019-08-13 06:00:00 8.3 10 Norte 18 Nordeste 0 -- -- 75
2019-08-13 05:00:00 8.2 12 Norte 24 Norte 0 -- -- 78
2019-08-13 04:00:00 8.7 12 Norte 34 Norte 0 -- -- 79
2019-08-13 03:00:00 9.2 22 Norte 41 Norte 0 -- -- 78
2019-08-13 02:00:00 9.5 17 Norte 31 Norte 0 -- -- 80
2019-08-13 01:00:00 9.7 14 Norte 26 Norte 0 -- -- 80
2019-08-13 00:00:00 9.6 10 Norte 24 Norte 0 -- -- 79
2019-08-12 23:00:00 10.2 14 Norte 31 Norte 0 -- -- 76
2019-08-12 22:00:00 10.7 17 Norte 32 Nordeste 0 -- -- 76
2019-08-12 21:00:00 11.5 17 Norte 37 Nordeste 0 -- -- 72
2019-08-12 20:00:00 12.8 18 Nordeste 41 Norte 0 -- -- 64
2019-08-12 19:00:00 15.4 23 Nordeste 39 Norte 0 -- -- 50
2019-08-12 18:00:00 16.6 21 Norte 39 Noroeste 0 -- -- 43
2019-08-12 17:00:00 17.2 22 Noroeste 37 Noroeste 0 -- -- 43
2019-08-12 16:00:00 17.2 19 Norte 35 Norte 0 -- -- 43
2019-08-12 15:00:00 17.1 18 Norte 37 Norte 0 -- -- 45
2019-08-12 14:00:00 16.7 20 Norte 37 Norte 0 -- -- 46
2019-08-12 13:00:00 16 14 Norte 31 Norte 0 -- -- 50
2019-08-12 12:00:00 14.2 17 Norte 33 Norte 0 -- -- 58
2019-08-12 11:00:00 12.1 20 Norte 41 Norte 0 -- -- 66
2019-08-12 10:00:00 10.8 24 Norte 39 Norte 0 -- -- 72
2019-08-12 09:00:00 9.3 25 Norte 38 Norte 0 -- -- 77
2019-08-12 08:00:00 8.3 16 Norte 31 Norte 0 -- -- 84
2019-08-12 07:00:00 8.4 18 Norte 35 Norte 0 -- -- 88
2019-08-12 06:00:00 8.7 19 Norte 32 Norte 0 -- -- 90
2019-08-12 05:00:00 9.2 19 Norte 29 Norte 0 -- -- 90
2019-08-12 04:00:00 9.8 17 Norte 32 Norte 0 -- -- 90
2019-08-12 03:00:00 10.4 14 Norte 27 Norte 0 -- -- 87
2019-08-12 02:00:00 11.3 11 Norte 25 Norte 0 -- -- 85
2019-08-12 01:00:00 11.3 12 Norte 29 Norte 0 -- -- 87
2019-08-12 00:00:00 11.5 17 Norte 31 Norte 0 -- -- 88
2019-08-11 23:00:00 12.3 14 Norte 32 Norte 0 -- -- 84
2019-08-11 22:00:00 13 17 Norte 30 Noroeste 0 -- -- 83
2019-08-11 21:00:00 14.6 16 Norte 24 Norte 0 -- -- 77
2019-08-11 20:00:00 17.2 9 Norte 23 Nordeste 0 -- -- 65
2019-08-11 19:00:00 18.3 9 Nordeste 26 Nordeste 0 -- -- 61
2019-08-11 18:00:00 18.7 8 Norte 19 Este 0 -- -- 60
2019-08-11 17:00:00 19.2 10 Nordeste 23 Nordeste 0 -- -- 60
2019-08-11 16:00:00 23.4 7 Oeste 30 Oeste 0 -- -- 36
2019-08-11 15:00:00 23.6 6 Sudoeste 26 Sur 0 -- -- 33
2019-08-11 14:00:00 22.7 9 Oeste 30 Sudoeste 0 -- -- 37
2019-08-11 13:00:00 22.6 13 Oeste 28 Oeste 0 -- -- 37
2019-08-11 12:00:00 22 15 Sudoeste 28 Sudoeste 0 -- -- 40
2019-08-11 11:00:00 19.6 8 Sur 18 Sur 0 -- -- 60
2019-08-11 10:00:00 15.8 10 Norte 22 Norte 0 -- -- 73
2019-08-11 09:00:00 13.5 13 Norte 21 Norte 0.2 -- -- 84
2019-08-11 08:00:00 12.5 11 Norte 37 Norte 0.4 -- -- 90
2019-08-11 07:00:00 14.7 8 Norte 18 Norte 0 -- -- 88
2019-08-11 06:00:00 14.4 4 Noroeste 9 Norte 0 -- -- 88
2019-08-11 05:00:00 14.5 5 Norte 10 Noroeste 0 -- -- 88
2019-08-11 04:00:00 14.4 6 Norte 11 Norte 0 -- -- 87
2019-08-11 03:00:00 14.4 6 Norte 12 Norte 0 -- -- 87
2019-08-11 02:00:00 14.7 6 Norte 14 Norte 0 -- -- 87
2019-08-11 01:00:00 14.8 9 Norte 14 Norte 0 -- -- 88
2019-08-11 00:00:00 15.1 8 Norte 14 Norte 0 -- -- 85
2019-08-10 23:00:00 15.6 10 Norte 18 Noroeste 0.4 -- -- 85
2019-08-10 22:00:00 17.1 7 Noroeste 29 Nordeste 0.2 -- -- 75
2019-08-10 21:00:00 19.9 7 Nordeste 22 Nordeste 0 -- -- 56
2019-08-10 20:00:00 24.7 10 Sur 25 Este 0 -- -- 38
2019-08-10 19:00:00 26.6 9 Sur 23 Sudoeste 0 -- -- 33
2019-08-10 18:00:00 27.7 17 Sudoeste 31 Sur 0 -- -- 27
2019-08-10 17:00:00 26.9 14 Sudoeste 30 Sudoeste 0 -- -- 25
2019-08-10 16:00:00 26.3 15 Sur 29 Sur 0 -- -- 31
2019-08-10 15:00:00 26.1 16 Sur 26 Sudoeste 0 -- -- 35
2019-08-10 14:00:00 24.1 9 Sudoeste 27 Sur 0 -- -- 38
2019-08-10 13:00:00 23.2 8 Sur 21 Sur 0 -- -- 38
2019-08-10 12:00:00 22.4 6 Sur 18 Sudoeste 0 -- -- 44
2019-08-10 11:00:00 20.6 7 Sur 17 Sur 0 -- -- 50
2019-08-10 10:00:00 18.5 6 Sur 10 Sur 0 -- -- 53
2019-08-10 09:00:00 14.3 0 Calma 10 Norte 0 -- -- 68
2019-08-10 08:00:00 9.3 4 Norte 14 Norte 0 -- -- 79
2019-08-10 07:00:00 8.2 8 Norte 14 Norte 0 -- -- 74
2019-08-10 06:00:00 7.6 10 Norte 14 Norte 0 -- -- 73
2019-08-10 05:00:00 7.9 8 Norte 14 Norte 0 -- -- 74
2019-08-10 04:00:00 8.4 8 Norte 13 Norte 0 -- -- 77
2019-08-10 03:00:00 9.4 5 Norte 11 Norte 0 -- -- 80
2019-08-10 02:00:00 10.9 7 Norte 14 Norte 0 -- -- 83
2019-08-10 01:00:00 12.7 3 Noroeste 16 Sudeste 0 -- -- 78
2019-08-10 00:00:00 15.8 8 Sudeste 27 Oeste 0 -- -- 71
2019-08-09 23:00:00 17.7 15 Oeste 33 Sudoeste 0 -- -- 66
2019-08-09 22:00:00 18.5 18 Noroeste 46 Oeste 0 -- -- 63
2019-08-09 21:00:00 19.2 6 Sur 35 Oeste 0 -- -- 54
2019-08-09 20:00:00 21.6 16 Noroeste 37 Sudoeste 0 -- -- 61
2019-08-09 19:00:00 24.5 16 Sudoeste 33 Oeste 0 -- -- 55
2019-08-09 18:00:00 27.2 17 Oeste 31 Sudoeste 0 -- -- 48
2019-08-09 17:00:00 26.4 16 Sudoeste 35 Sudoeste 0 -- -- 49
2019-08-09 16:00:00 25.7 19 Sudoeste 44 Oeste 0 -- -- 48
2019-08-09 15:00:00 26.7 14 Sudoeste 39 Oeste 0 -- -- 47
2019-08-09 14:00:00 27.2 14 Oeste 37 Sudoeste 0 -- -- 45
2019-08-09 13:00:00 27.1 20 Sudoeste 39 Sudoeste 0 -- -- 42
2019-08-09 12:00:00 25.7 16 Sur 33 Sur 0 -- -- 48
2019-08-09 11:00:00 24.2 17 Sudoeste 34 Oeste 0 -- -- 51
2019-08-09 10:00:00 22.5 15 Sudoeste 38 Sudoeste 0 -- -- 55
2019-08-09 09:00:00 20.8 14 Sudoeste 30 Sudoeste 0 -- -- 61
2019-08-09 08:00:00 18.9 14 Sudoeste 26 Sudoeste 0 -- -- 66
2019-08-09 07:00:00 18 13 Sudoeste 24 Oeste 0 -- -- 71
2019-08-09 06:00:00 18.6 10 Oeste 18 Oeste 0 -- -- 66
2019-08-09 05:00:00 18.8 10 Oeste 20 Oeste 0 -- -- 66
2019-08-09 04:00:00 18.2 7 Oeste 19 Sudoeste 0 -- -- 69
2019-08-09 03:00:00 19.5 6 Oeste 23 Sudoeste 0 -- -- 61
2019-08-09 02:00:00 20.6 10 Oeste 26 Oeste 0 -- -- 57
2019-08-09 01:00:00 19.5 9 Noroeste 19 Oeste 0 -- -- 61
2019-08-09 00:00:00 17.5 8 Norte 10 Norte 0 -- -- 70
2019-08-08 23:00:00 19.3 4 Norte 10 Norte 0 -- -- 66
2019-08-08 22:00:00 21.2 4 Nordeste 12 Oeste 0 -- -- 59
2019-08-08 21:00:00 24.9 8 Sudoeste 21 Sudoeste 0 -- -- 47
2019-08-08 20:00:00 27.3 9 Sudoeste 27 Sudoeste 0 -- -- 42
2019-08-08 19:00:00 29.6 13 Sudoeste 26 Sudoeste 0 -- -- 40
2019-08-08 18:00:00 27.9 12 Sur 24 Oeste 0 -- -- 44
2019-08-08 17:00:00 27.9 16 Sudoeste 31 Sudoeste 0 -- -- 42
2019-08-08 16:00:00 28.8 13 Sudoeste 30 Oeste 0 -- -- 42
2019-08-08 15:00:00 25.6 11 Sudoeste 25 Oeste 0 -- -- 48
2019-08-08 14:00:00 24.3 6 Noroeste 32 Oeste 0 -- -- 51
2019-08-08 13:00:00 25.2 17 Sudoeste 34 Oeste 0 -- -- 51
2019-08-08 12:00:00 24.8 17 Sudoeste 32 Sudoeste 0 -- -- 52
2019-08-08 11:00:00 23.1 14 Sudoeste 33 Oeste 0 -- -- 57
2019-08-08 10:00:00 21.1 12 Sur 23 Sur 0 -- -- 59
2019-08-08 09:00:00 17.3 6 Sudeste 11 Sudeste 0 -- -- 71
2019-08-08 08:00:00 12.8 4 Oeste 14 Este 0 -- -- 88
2019-08-08 07:00:00 12 2 Noroeste 9 Norte 0 -- -- 87
2019-08-08 06:00:00 12.4 2 Sudeste 9 Sudoeste 0 -- -- 85
2019-08-08 05:00:00 12.2 6 Norte 10 Norte 0 -- -- 85
2019-08-08 04:00:00 12.1 4 Norte 10 Norte 0 -- -- 85
2019-08-08 03:00:00 12.5 4 Norte 8 Norte 0 -- -- 83
2019-08-08 02:00:00 14 2 Noroeste 8 Norte 0 -- -- 78
2019-08-08 01:00:00 16.3 0 Calma 5 Norte 0 -- -- 73
2019-08-08 00:00:00 17.1 4 Norte 9 Sur 0 -- -- 71
2019-08-07 23:00:00 17.6 3 Sudoeste 11 Sudoeste 0 -- -- 64
2019-08-07 22:00:00 18.8 3 Sudoeste 9 Noroeste 0 -- -- 60
2019-08-07 21:00:00 20.8 6 Noroeste 19 Noroeste 0 -- -- 51
2019-08-07 20:00:00 22.2 7 Oeste 17 Oeste 0 -- -- 46
2019-08-07 19:00:00 23.1 7 Sudoeste 24 Oeste 0 -- -- 43
2019-08-07 18:00:00 22.6 7 Oeste 28 Oeste 0 -- -- 45
2019-08-07 17:00:00 22.7 15 Oeste 32 Oeste 0 -- -- 49
2019-08-07 16:00:00 23.5 11 Oeste 26 Sudoeste 0 -- -- 45
2019-08-07 15:00:00 24 15 Sudoeste 33 Sudoeste 0 -- -- 45
2019-08-07 14:00:00 24.8 9 Oeste 27 Oeste 0 -- -- 43
2019-08-07 13:00:00 24.3 14 Oeste 32 Oeste 0 -- -- 45
2019-08-07 12:00:00 24.6 15 Sudoeste 32 Sudoeste 0 -- -- 46
2019-08-07 11:00:00 24.6 13 Sudoeste 33 Sudoeste 0 -- -- 47
2019-08-07 10:00:00 21.3 5 Sur 10 Oeste 0 -- -- 61
2019-08-07 09:00:00 17.7 0 Calma 5 Sur 0 -- -- 72
2019-08-07 08:00:00 15.9 2 Norte 10 Norte 0 -- -- 77
2019-08-07 07:00:00 15.5 8 Norte 13 Norte 0 -- -- 78
2019-08-07 06:00:00 15.5 8 Norte 13 Norte 0 -- -- 77
2019-08-07 05:00:00 15.9 7 Norte 14 Norte 0 -- -- 77
2019-08-07 04:00:00 16.3 7 Norte 27 Norte 0 -- -- 78
2019-08-07 03:00:00 16.5 16 Norte 27 Norte 0 -- -- 77
2019-08-07 02:00:00 17.8 16 Norte 28 Norte 0 -- -- 75
2019-08-07 01:00:00 19 7 Norte 17 Norte 0 -- -- 72
2019-08-07 00:00:00 19.6 11 Norte 23 Noroeste 0 -- -- 70
2019-08-06 23:00:00 20.4 14 Norte 22 Norte 0 -- -- 61
2019-08-06 22:00:00 21.8 8 Noroeste 17 Norte 0 -- -- 56
2019-08-06 21:00:00 23.2 9 Noroeste 28 Nordeste 0 -- -- 53
2019-08-06 20:00:00 25.2 11 Nordeste 24 Nordeste 0 -- -- 47
2019-08-06 19:00:00 28.9 7 Sur 22 Oeste 0 -- -- 37
2019-08-06 18:00:00 29.8 10 Sudoeste 21 Oeste 0 -- -- 28
2019-08-06 17:00:00 29.2 14 Oeste 27 Oeste 0 -- -- 27
2019-08-06 16:00:00 30.4 9 Sur 33 Sudoeste 0 -- -- 26
2019-08-06 15:00:00 29.9 15 Sudoeste 28 Sudoeste 0 -- -- 28
2019-08-06 14:00:00 28.6 13 Sudoeste 31 Sudoeste 0 -- -- 30
2019-08-06 13:00:00 28.4 14 Sudoeste 26 Sudoeste 0 -- -- 32
2019-08-06 12:00:00 27.9 11 Sudoeste 27 Oeste 0 -- -- 37
2019-08-06 11:00:00 24.8 8 Sudeste 16 Sudeste 0 -- -- 50
2019-08-06 10:00:00 23 6 Sudeste 10 Sudeste 0 -- -- 56
2019-08-06 09:00:00 18.7 5 Norte 10 Norte 0 -- -- 73
2019-08-06 08:00:00 14.5 7 Norte 11 Norte 0 -- -- 85
2019-08-06 07:00:00 13.2 7 Noroeste 12 Norte 0 -- -- 86
2019-08-06 06:00:00 13.8 7 Norte 12 Norte 0 -- -- 82
2019-08-06 05:00:00 14.3 8 Norte 13 Norte 0 -- -- 83
2019-08-06 04:00:00 14.6 6 Norte 13 Norte 0 -- -- 81
2019-08-06 03:00:00 15.5 9 Norte 13 Norte 0 -- -- 79
2019-08-06 02:00:00 16.3 8 Norte 14 Norte 0 -- -- 75
2019-08-06 01:00:00 17.2 8 Norte 15 Noroeste 0 -- -- 73
2019-08-06 00:00:00 18.1 8 Norte 14 Norte 0 -- -- 70
2019-08-05 23:00:00 20.2 5 Norte 13 Oeste 0 -- -- 61
2019-08-05 22:00:00 22.5 5 Norte 19 Nordeste 0 -- -- 53
2019-08-05 21:00:00 24.8 14 Nordeste 25 Nordeste 0 -- -- 47
2019-08-05 20:00:00 25.9 12 Nordeste 25 Nordeste 0 -- -- 45
2019-08-05 19:00:00 27.6 14 Nordeste 24 Nordeste 0 -- -- 42
2019-08-05 18:00:00 31.8 11 Sudoeste 27 Sur 0 -- -- 23
2019-08-05 17:00:00 31.7 7 Sur 32 Sudoeste 0 -- -- 22
2019-08-05 16:00:00 31.3 13 Sudoeste 28 Oeste 0 -- -- 26
2019-08-05 15:00:00 30.6 13 Sudoeste 29 Sudoeste 0 -- -- 33
2019-08-05 14:00:00 29.2 10 Oeste 30 Sudeste 0 -- -- 31
2019-08-05 13:00:00 27.4 13 Sudeste 22 Sudeste 0 -- -- 42
2019-08-05 12:00:00 26.8 9 Sur 17 Sur 0 -- -- 49
2019-08-05 11:00:00 24.5 6 Sudeste 14 Sur 0 -- -- 54
2019-08-05 10:00:00 22.9 5 Sudeste 12 Sudeste 0 -- -- 60
2019-08-05 09:00:00 19.1 3 Norte 10 Norte 0 -- -- 75
2019-08-05 08:00:00 14.4 6 Norte 10 Norte 0 -- -- 87
2019-08-05 07:00:00 13.4 5 Norte 10 Norte 0 -- -- 87
2019-08-05 06:00:00 14.1 7 Norte 13 Norte 0 -- -- 84
2019-08-05 05:00:00 14.6 6 Norte 11 Norte 0 -- -- 83
2019-08-05 04:00:00 15 8 Norte 14 Norte 0 -- -- 81
2019-08-05 03:00:00 16.1 11 Norte 14 Norte 0 -- -- 77
2019-08-05 02:00:00 16 5 Norte 12 Norte 0 -- -- 76
2019-08-05 01:00:00 16.7 8 Norte 15 Norte 0 -- -- 73
2019-08-05 00:00:00 18 8 Norte 13 Norte 0 -- -- 68
2019-08-04 23:00:00 18.7 7 Norte 10 Norte 0 -- -- 65
2019-08-04 22:00:00 22 5 Noroeste 16 Noroeste 0 -- -- 54
2019-08-04 21:00:00 23.7 4 Norte 17 Noroeste 0 -- -- 49
2019-08-04 20:00:00 26 10 Norte 30 Norte 0 -- -- 43
2019-08-04 19:00:00 28.3 12 Norte 28 Sudoeste 0 -- -- 40
2019-08-04 18:00:00 32.1 10 Sudoeste 25 Oeste 0 -- -- 21
2019-08-04 17:00:00 32.3 13 Sudoeste 30 Sudoeste 0 -- -- 22
2019-08-04 16:00:00 31.2 12 Oeste 36 Sur 0 -- -- 23
2019-08-04 15:00:00 30.9 17 Sudoeste 35 Sudoeste 0 -- -- 26
2019-08-04 14:00:00 29.4 15 Sur 33 Sur 0 -- -- 31
2019-08-04 13:00:00 28.1 11 Sur 24 Sur 0 -- -- 40
2019-08-04 12:00:00 25.6 11 Sudeste 18 Sudeste 0 -- -- 49
2019-08-04 11:00:00 24.5 7 Sur 15 Sur 0 -- -- 53
2019-08-04 10:00:00 22.9 6 Sur 12 Sudeste 0 -- -- 60
2019-08-04 09:00:00 18.6 4 Norte 10 Norte 0 -- -- 74
2019-08-04 08:00:00 14.3 7 Norte 10 Norte 0 -- -- 84
2019-08-04 07:00:00 13 5 Norte 11 Norte 0 -- -- 84
2019-08-04 06:00:00 13.9 7 Norte 14 Norte 0 -- -- 80
2019-08-04 05:00:00 14.7 9 Norte 14 Norte 0 -- -- 76
2019-08-04 04:00:00 15.1 8 Norte 15 Norte 0 -- -- 76
2019-08-04 03:00:00 16.9 9 Norte 15 Noroeste 0 -- -- 74
2019-08-04 02:00:00 19 9 Norte 22 Norte 0 -- -- 67
2019-08-04 01:00:00 18.7 9 Norte 15 Noroeste 0 -- -- 66
2019-08-04 00:00:00 19.5 5 Norte 14 Norte 0 -- -- 56
2019-08-03 23:00:00 20.1 7 Norte 18 Noroeste 0 -- -- 53
2019-08-03 22:00:00 22.2 9 Norte 18 Norte 0 -- -- 48
2019-08-03 21:00:00 24.6 9 Norte 22 Norte 0 -- -- 41
2019-08-03 20:00:00 26.7 9 Nordeste 25 Este 0 -- -- 35
2019-08-03 19:00:00 27.7 13 Nordeste 27 Norte 0 -- -- 33
2019-08-03 18:00:00 29 14 Nordeste 28 Nordeste 0 -- -- 32
2019-08-03 17:00:00 32.4 10 Sudoeste 27 Sur 0 -- -- 22
2019-08-03 16:00:00 31.6 12 Oeste 32 Sudoeste 0 -- -- 21
2019-08-03 15:00:00 31 15 Sudoeste 28 Oeste 0 -- -- 26
2019-08-03 14:00:00 29.8 17 Sudoeste 31 Sudoeste 0 -- -- 30
2019-08-03 13:00:00 27.4 12 Sur 24 Sudeste 0 -- -- 36
2019-08-03 12:00:00 25.5 11 Sur 26 Sudeste 0 -- -- 42
2019-08-03 11:00:00 24.6 10 Sur 20 Sur 0 -- -- 41
2019-08-03 10:00:00 22.9 9 Sur 14 Sudoeste 0 -- -- 44
2019-08-03 09:00:00 17.8 5 Norte 10 Norte 0 -- -- 64
2019-08-03 08:00:00 13.2 8 Norte 14 Norte 0 -- -- 72
2019-08-03 07:00:00 12.2 9 Norte 14 Norte 0 -- -- 74
2019-08-03 06:00:00 12.7 7 Norte 12 Norte 0 -- -- 72
2019-08-03 05:00:00 13 10 Norte 14 Norte 0 -- -- 69
2019-08-03 04:00:00 13.8 9 Norte 14 Norte 0 -- -- 65
2019-08-03 03:00:00 14.1 9 Norte 17 Norte 0 -- -- 64
2019-08-03 02:00:00 14.1 9 Norte 14 Norte 0 -- -- 66
2019-08-03 01:00:00 15.4 6 Norte 14 Noroeste 0 -- -- 70
2019-08-03 00:00:00 15.8 12 Norte 17 Noroeste 0 -- -- 72
2019-08-02 23:00:00 17.8 8 Norte 17 Noroeste 0 -- -- 66
2019-08-02 22:00:00 18.9 6 Norte 18 Noroeste 0 -- -- 62
2019-08-02 21:00:00 21 12 Norte 25 Norte 0 -- -- 53
2019-08-02 20:00:00 23.1 15 Norte 25 Norte 0 -- -- 44
2019-08-02 19:00:00 25.1 14 Norte 29 Norte 0 -- -- 39
2019-08-02 18:00:00 25.9 13 Este 28 Nordeste 0 -- -- 43
2019-08-02 17:00:00 25.7 10 Norte 25 Nordeste 0 -- -- 46
2019-08-02 16:00:00 26.3 15 Este 24 Este 0 -- -- 42
2019-08-02 15:00:00 29.1 4 Oeste 20 Sudoeste 0 -- -- 32
2019-08-02 14:00:00 27.4 8 Sur 19 Sudoeste 0 -- -- 35
2019-08-02 13:00:00 26.4 6 Sur 18 Oeste 0 -- -- 39
2019-08-02 12:00:00 25.4 6 Sur 17 Sudeste 0 -- -- 41
2019-08-02 11:00:00 23.7 6 Sudeste 12 Sur 0 -- -- 42
2019-08-02 10:00:00 21.4 0 Calma 3 Nordeste 0 -- -- 49
2019-08-02 09:00:00 17.2 3 Norte 9 Norte 0 -- -- 67
2019-08-02 08:00:00 13 5 Norte 14 Norte 0 -- -- 77
2019-08-02 07:00:00 11.5 11 Norte 15 Norte 0 -- -- 78
2019-08-02 06:00:00 11.6 8 Norte 13 Norte 0 -- -- 79
2019-08-02 05:00:00 12.2 6 Noroeste 11 Norte 0 -- -- 78
2019-08-02 04:00:00 12.8 7 Norte 12 Norte 0 -- -- 78
2019-08-02 03:00:00 13.8 5 Norte 13 Norte 0 -- -- 78
2019-08-02 02:00:00 14.5 3 Norte 15 Norte 0 -- -- 84
2019-08-02 01:00:00 15.4 11 Norte 23 Norte 0 -- -- 86
2019-08-02 00:00:00 16.4 15 Norte 24 Norte 0 -- -- 87
2019-08-01 23:00:00 17.2 16 Noroeste 27 Noroeste 0 -- -- 84
2019-08-01 22:00:00 17.9 12 Norte 27 Norte 0 -- -- 82
2019-08-01 21:00:00 19.4 16 Norte 27 Noroeste 0 -- -- 75
2019-08-01 20:00:00 20.7 16 Norte 31 Nordeste 0 -- -- 70
2019-08-01 19:00:00 21.9 12 Nordeste 32 Nordeste 0 -- -- 64
2019-08-01 18:00:00 24.1 11 Nordeste 31 Nordeste 0 -- -- 57
2019-08-01 17:00:00 29.1 14 Sudoeste 29 Sudoeste 0 -- -- 33
2019-08-01 16:00:00 26.8 12 Sudoeste 27 Sudoeste 0 -- -- 43
2019-08-01 15:00:00 25.6 11 Sur 24 Sudeste 0 -- -- 48
2019-08-01 14:00:00 24.6 10 Sur 24 Sur 0 -- -- 55
2019-08-01 13:00:00 22.7 8 Sudeste 22 Este 0 -- -- 59
2019-08-01 12:00:00 22.3 10 Sudeste 24 Sur 0 -- -- 60
2019-08-01 11:00:00 20.3 11 Sur 20 Sudeste 0 -- -- 66
2019-08-01 10:00:00 19.9 8 Sur 14 Sur 0 -- -- 73
2019-08-01 09:00:00 16.1 2 Sudoeste 6 Norte 0 -- -- 85
2019-08-01 08:00:00 14.6 4 Norte 8 Norte 0 -- -- 88
2019-08-01 07:00:00 13.4 4 Norte 6 Norte 0 -- -- 88
2019-08-01 06:00:00 13.9 4 Norte 8 Norte 0 -- -- 86
2019-08-01 05:00:00 14.2 8 Norte 11 Norte 0 -- -- 84
2019-08-01 04:00:00 14.6 7 Noroeste 13 Noroeste 0 -- -- 81
2019-08-01 03:00:00 14.1 6 Norte 14 Nordeste 0 -- -- 78
2019-08-01 02:00:00 16.1 7 Nordeste 19 Este 0 -- -- 69
2019-08-01 01:00:00 15.8 4 Noroeste 14 Norte 0 -- -- 68
2019-08-01 00:00:00 15.5 6 Noroeste 17 Norte 0 -- -- 67
2019-07-31 23:00:00 16.2 8 Norte 15 Norte 0 -- -- 64
2019-07-31 22:00:00 18 4 Noroeste 24 Norte 0 -- -- 57
2019-07-31 21:00:00 19.8 11 Nordeste 27 Nordeste 0 -- -- 50
2019-07-31 20:00:00 21.3 15 Este 31 Nordeste 0 -- -- 44
2019-07-31 19:00:00 22.8 15 Nordeste 30 Nordeste 0 -- -- 40
2019-07-31 18:00:00 24.6 10 Nordeste 26 Nordeste 0 -- -- 37
2019-07-31 17:00:00 25.1 8 Este 24 Sudeste 0 -- -- 38
2019-07-31 16:00:00 24.8 8 Sudeste 22 Sur 0 -- -- 39
2019-07-31 15:00:00 24 8 Sudeste 23 Sudoeste 0 -- -- 41
2019-07-31 14:00:00 24.8 12 Sur 22 Sudoeste 0 -- -- 43
2019-07-31 13:00:00 22.4 9 Sudeste 22 Sudoeste 0 -- -- 45
2019-07-31 12:00:00 22 5 Sur 17 Sudoeste 0 -- -- 46
2019-07-31 11:00:00 19.6 8 Sudeste 14 Sudoeste 0 -- -- 47
2019-07-31 10:00:00 17.8 4 Sudoeste 10 Sudoeste 0 -- -- 48
2019-07-31 09:00:00 13.3 7 Norte 10 Norte 0 -- -- 65
2019-07-31 08:00:00 9.1 6 Norte 13 Norte 0 -- -- 73
2019-07-31 07:00:00 7.6 10 Norte 15 Norte 0 -- -- 78
2019-07-31 06:00:00 8.2 10 Norte 16 Norte 0 -- -- 76
2019-07-31 05:00:00 8.5 5 Norte 18 Norte 0 -- -- 77
2019-07-31 04:00:00 8.3 12 Norte 27 Norte 0 -- -- 82
2019-07-31 03:00:00 8.8 17 Norte 26 Norte 0 -- -- 86
2019-07-31 02:00:00 9.7 11 Norte 27 Norte 0 -- -- 81
2019-07-31 01:00:00 9.8 15 Norte 30 Norte 0 -- -- 81
2019-07-31 00:00:00 10.6 13 Nordeste 30 Norte 0 -- -- 78
2019-07-30 23:00:00 11.1 17 Norte 27 Norte 0 -- -- 76
2019-07-30 22:00:00 12 13 Norte 31 Norte 0 -- -- 73
2019-07-30 21:00:00 13.8 13 Norte 31 Norte 0 -- -- 64
2019-07-30 20:00:00 16.1 15 Norte 32 Norte 0 -- -- 56
2019-07-30 19:00:00 17.9 18 Norte 34 Norte 0 -- -- 50
2019-07-30 18:00:00 19.2 15 Norte 31 Norte 0 -- -- 50
2019-07-30 17:00:00 19.5 15 Norte 26 Norte 0 -- -- 49
2019-07-30 16:00:00 19 14 Norte 26 Norte 0 -- -- 51
2019-07-30 15:00:00 18.8 14 Norte 25 Nordeste 0 -- -- 55
2019-07-30 14:00:00 19.7 8 Noroeste 17 Oeste 0 -- -- 46
2019-07-30 13:00:00 17.6 9 Norte 22 Norte 0 -- -- 53
2019-07-30 12:00:00 16.5 11 Norte 26 Nordeste 0 -- -- 54
2019-07-30 11:00:00 14.9 16 Norte 26 Nordeste 0 -- -- 57
2019-07-30 10:00:00 13.5 15 Norte 24 Norte 0 -- -- 64
2019-07-30 09:00:00 12.3 15 Norte 25 Norte 0 -- -- 74
2019-07-30 08:00:00 11.3 10 Norte 23 Norte 0 -- -- 80
2019-07-30 07:00:00 10.5 12 Norte 22 Norte 0 -- -- 85
2019-07-30 06:00:00 10.9 12 Norte 24 Norte 0 -- -- 85
2019-07-30 05:00:00 11 4 Nordeste 22 Norte 0 -- -- 85
2019-07-30 04:00:00 11.3 16 Norte 27 Norte 0 -- -- 85
2019-07-30 03:00:00 11.4 13 Norte 29 Norte 0 -- -- 86
2019-07-30 02:00:00 11.5 18 Norte 36 Norte 0 -- -- 87
2019-07-30 01:00:00 12.3 18 Norte 36 Norte 0 -- -- 86
2019-07-30 00:00:00 13.2 16 Norte 30 Norte 0 -- -- 85
2019-07-29 23:00:00 15.5 13 Norte 25 Noroeste 0 -- -- 80
2019-07-29 22:00:00 18 9 Noroeste 15 Noroeste 0 -- -- 68
2019-07-29 21:00:00 20.9 6 Oeste 18 Oeste 0 -- -- 46
2019-07-29 20:00:00 24.4 8 Oeste 26 Oeste 0 -- -- 35
2019-07-29 19:00:00 26.1 10 Sudoeste 31 Oeste 0 -- -- 33
2019-07-29 18:00:00 27.5 9 Sudoeste 32 Sudoeste 0 -- -- 31
2019-07-29 17:00:00 27.2 13 Oeste 32 Sudoeste 0 -- -- 30
2019-07-29 16:00:00 26.8 12 Oeste 37 Sur 0 -- -- 30
2019-07-29 15:00:00 26.2 19 Sudoeste 35 Sudoeste 0 -- -- 35
2019-07-29 14:00:00 25.4 17 Sudoeste 36 Sudoeste 0 -- -- 37
2019-07-29 13:00:00 24 17 Sudoeste 29 Sur 0 -- -- 37
2019-07-29 12:00:00 22.7 8 Sudoeste 20 Sudoeste 0 -- -- 39
2019-07-29 11:00:00 20.6 8 Sur 15 Sudeste 0 -- -- 51
2019-07-29 10:00:00 18.6 7 Sur 13 Sur 0 -- -- 59
2019-07-29 09:00:00 14.7 0 Calma 12 Norte 0 -- -- 69
2019-07-29 08:00:00 9.7 6 Norte 12 Norte 0 -- -- 85
2019-07-29 07:00:00 7.8 6 Norte 12 Norte 0 -- -- 89
2019-07-29 06:00:00 8.1 7 Norte 13 Norte 0 -- -- 89
2019-07-29 05:00:00 8.3 7 Norte 12 Norte 0 -- -- 89
2019-07-29 04:00:00 7.7 7 Norte 9 Norte 0 -- -- 89
2019-07-29 03:00:00 8 7 Norte 12 Norte 0 -- -- 86
2019-07-29 02:00:00 8.6 7 Norte 12 Norte 0 -- -- 84
2019-07-29 01:00:00 9.6 8 Norte 13 Norte 0 -- -- 81
2019-07-29 00:00:00 10.7 7 Norte 14 Norte 0 -- -- 81
2019-07-28 23:00:00 12.5 6 Norte 13 Norte 0 -- -- 82
2019-07-28 22:00:00 14.9 8 Norte 15 Norte 0 -- -- 75
2019-07-28 21:00:00 17.1 12 Norte 17 Noroeste 0 -- -- 65
2019-07-28 20:00:00 19.9 10 Norte 21 Nordeste 0 -- -- 58
2019-07-28 19:00:00 22.6 11 Este 21 Nordeste 0 -- -- 46
2019-07-28 18:00:00 23.8 7 Oeste 22 Oeste 0 -- -- 28
2019-07-28 17:00:00 22.7 13 Oeste 28 Oeste 0 -- -- 40
2019-07-28 16:00:00 20.8 4 Sudeste 15 Sudeste 0 -- -- 47
2019-07-28 15:00:00 20.1 6 Sur 14 Sudoeste 0 -- -- 50
2019-07-28 14:00:00 19.6 4 Sudeste 13 Sur 0 -- -- 53
2019-07-28 13:00:00 17.7 3 Sudeste 14 Este 0 -- -- 59
2019-07-28 12:00:00 15.6 5 Nordeste 17 Este 0 -- -- 64
2019-07-28 11:00:00 13.4 11 Norte 26 Norte 0 -- -- 73
2019-07-28 10:00:00 11.7 17 Norte 31 Norte 0 -- -- 76
2019-07-28 09:00:00 10.6 14 Norte 25 Nordeste 0 -- -- 79
2019-07-28 08:00:00 10.3 5 Norte 34 Norte 0 -- -- 83
2019-07-28 07:00:00 9.2 18 Norte 31 Norte 0.2 -- -- 86
2019-07-28 06:00:00 9.2 10 Nordeste 22 Nordeste 0 -- -- 87
2019-07-28 05:00:00 9.4 5 Norte 21 Nordeste 0 -- -- 87
2019-07-28 04:00:00 9 9 Norte 40 Noroeste 0 -- -- 86
2019-07-28 03:00:00 9.3 19 Norte 37 Norte 0 -- -- 85
2019-07-28 02:00:00 9.9 16 Norte 32 Norte 0 -- -- 88
2019-07-28 01:00:00 10.1 17 Noroeste 31 Noroeste 0 -- -- 89
2019-07-28 00:00:00 10.3 21 Norte 31 Norte 0 -- -- 88
2019-07-27 23:00:00 10.8 14 Norte 27 Norte 0 -- -- 86
2019-07-26 12:00:00 -- -- -- -- -- -- -- -- --
2019-07-26 11:00:00 -- -- -- -- -- -- -- -- --
2019-07-26 10:00:00 -- -- -- -- -- -- -- -- --
2019-07-26 09:00:00 15.3 7 Noroeste 27 Noroeste 0 -- -- 89
2019-07-26 08:00:00 14.6 5 Noroeste 15 Noroeste 0 -- -- 90
2019-07-26 07:00:00 14.9 3 Oeste 15 Noroeste 0.6 -- -- 87
2019-07-26 06:00:00 16 9 Norte 24 Noroeste 0.4 -- -- 84
2019-07-26 05:00:00 16.6 12 Norte 27 Noroeste 0 -- -- 82
2019-07-26 04:00:00 16.6 13 Norte 26 Norte 0.6 -- -- 84
2019-07-26 03:00:00 17.7 5 Norte 14 Norte 0 -- -- 64
2019-07-26 02:00:00 16.6 8 Norte 14 Norte 0 -- -- 63
2019-07-26 01:00:00 17.5 5 Noroeste 12 Norte 0 -- -- 59
2019-07-26 00:00:00 18.6 8 Norte 12 Noroeste 0 -- -- 53
2019-07-25 23:00:00 19.9 3 Oeste 15 Norte 0 -- -- 48
2019-07-25 22:00:00 20.5 9 Norte 13 Norte 0 -- -- 42
2019-07-25 21:00:00 25.3 7 Sudoeste 20 Sur 0 -- -- 31
2019-07-25 20:00:00 28.5 12 Sudoeste 24 Sur 0 -- -- 27
2019-07-25 19:00:00 30.4 19 Sudoeste 34 Sur 0 -- -- 22
2019-07-25 18:00:00 31.6 20 Sudoeste 41 Sudoeste 0 -- -- 24
2019-07-25 17:00:00 31.6 21 Sur 39 Sudeste 0 -- -- 27
2019-07-25 16:00:00 31.2 23 Sur 41 Sur 0 -- -- 26
2019-07-25 15:00:00 31.1 15 Sudoeste 32 Sudoeste 0 -- -- 29
2019-07-25 14:00:00 30.6 13 Sudoeste 25 Sur 0 -- -- 32
2019-07-25 13:00:00 28.6 11 Sur 21 Sudeste 0 -- -- 36
2019-07-25 12:00:00 26.8 10 Sudeste 16 Sur 0 -- -- 35
2019-07-25 11:00:00 25.3 9 Sudeste 15 Sudeste 0 -- -- 37
2019-07-25 10:00:00 23.3 8 Sudeste 12 Este 0 -- -- 44
2019-07-25 09:00:00 18.3 4 Norte 8 Norte 0 -- -- 66
2019-07-25 08:00:00 15.5 5 Norte 12 Norte 0 -- -- 68
2019-07-25 07:00:00 13.4 8 Norte 13 Norte 0 -- -- 71
2019-07-25 06:00:00 13.7 7 Norte 13 Norte 0 -- -- 71
2019-07-25 05:00:00 14.6 7 Norte 12 Norte 0 -- -- 68
2019-07-25 04:00:00 14.4 8 Norte 13 Norte 0 -- -- 68
2019-07-25 03:00:00 15.6 6 Norte 13 Norte 0 -- -- 63
2019-07-25 02:00:00 16.4 9 Norte 15 Norte 0 -- -- 60
2019-07-25 01:00:00 17.1 9 Norte 14 Norte 0 -- -- 58
2019-07-25 00:00:00 18 8 Norte 13 Norte 0 -- -- 56
2019-07-24 23:00:00 19 7 Norte 12 Norte 0 -- -- 54
2019-07-24 22:00:00 21.5 5 Norte 12 Noroeste 0 -- -- 50
2019-07-24 21:00:00 24.6 5 Norte 10 Oeste 0 -- -- 43
2019-07-24 20:00:00 28.5 6 Sudoeste 24 Sudoeste 0 -- -- 30
2019-07-24 19:00:00 32.4 11 Sudoeste 28 Sudoeste 0 -- -- 25
2019-07-24 18:00:00 31.1 12 Sur 36 Sudoeste 0 -- -- 29
2019-07-24 17:00:00 32.2 16 Sur 39 Sudeste 0 -- -- 26
2019-07-24 16:00:00 29.5 11 Sur 27 Sudeste 0 -- -- 28
2019-07-24 15:00:00 30.4 10 Sur 31 Sudeste 0 -- -- 34
2019-07-24 14:00:00 29 12 Sur 23 Sur 0 -- -- 31
2019-07-24 13:00:00 28.9 11 Sudeste 21 Sur 0 -- -- 32
2019-07-24 12:00:00 27.3 8 Sur 17 Sudeste 0 -- -- 36
2019-07-24 11:00:00 25.8 11 Sur 20 Sur 0 -- -- 41
2019-07-24 10:00:00 24.1 5 Sur 9 Sudeste 0 -- -- 43
2019-07-24 09:00:00 19.5 2 Norte 8 Norte 0 -- -- 67
2019-07-24 08:00:00 15.2 4 Norte 10 Nordeste 0 -- -- 73
2019-07-24 07:00:00 14.4 8 Norte 14 Norte 0 -- -- 73
2019-07-24 06:00:00 14 9 Norte 14 Norte 0 -- -- 74
2019-07-24 05:00:00 14.1 8 Norte 13 Norte 0 -- -- 74
2019-07-24 04:00:00 15.1 6 Norte 13 Norte 0 -- -- 71
2019-07-24 03:00:00 15.7 7 Norte 14 Norte 0 -- -- 69
2019-07-24 02:00:00 17.6 6 Norte 12 Norte 0 -- -- 64
2019-07-24 01:00:00 19 5 Norte 10 Norte 0 -- -- 65
2019-07-24 00:00:00 19.8 9 Norte 23 Oeste 0 -- -- 61
2019-07-23 23:00:00 20.4 10 Norte 19 Norte 0 -- -- 59
2019-07-23 22:00:00 22.3 8 Norte 18 Noroeste 0 -- -- 46
2019-07-23 21:00:00 23.9 5 Noroeste 17 Sudoeste 0 -- -- 46
2019-07-23 20:00:00 27.5 8 Sur 35 Sudeste 0 -- -- 33
2019-07-23 19:00:00 29.6 7 Oeste 36 Oeste 0 -- -- 31
2019-07-23 18:00:00 32.8 15 Sudoeste 27 Sudoeste 0 -- -- 26
2019-07-23 17:00:00 32.5 14 Sudoeste 32 Sudoeste 0 -- -- 27
2019-07-23 16:00:00 31.2 15 Sur 30 Sur 0 -- -- 27
2019-07-23 15:00:00 30.4 11 Sur 28 Sudoeste 0 -- -- 31
2019-07-23 14:00:00 28 12 Sur 21 Sudeste 0 -- -- 36
2019-07-23 13:00:00 28 12 Sur 19 Sur 0 -- -- 34
2019-07-23 12:00:00 26.6 10 Sudeste 19 Sudoeste 0 -- -- 37
2019-07-23 11:00:00 26.2 8 Sur 18 Sur 0 -- -- 37
2019-07-23 10:00:00 23.9 7 Sudeste 16 Sudeste 0 -- -- 40
2019-07-23 09:00:00 20.6 8 Sudeste 19 Sur 0 -- -- 49
2019-07-23 08:00:00 14.7 8 Norte 13 Norte 0 -- -- 68
2019-07-23 07:00:00 12.9 10 Norte 13 Norte 0 -- -- 74
2019-07-23 06:00:00 13.1 8 Norte 13 Norte 0 -- -- 76
2019-07-23 05:00:00 14.1 8 Norte 13 Norte 0 -- -- 75
2019-07-23 04:00:00 14.4 8 Norte 13 Norte 0 -- -- 74
2019-07-23 03:00:00 14.9 7 Norte 13 Norte 0 -- -- 73
2019-07-23 02:00:00 15.8 9 Norte 13 Norte 0 -- -- 66
2019-07-23 01:00:00 16.8 7 Norte 13 Norte 0 -- -- 63
2019-07-23 00:00:00 18 9 Norte 15 Norte 0 -- -- 59
2019-07-22 23:00:00 20.2 7 Norte 14 Norte 0 -- -- 54
2019-07-22 22:00:00 21 8 Norte 12 Norte 0 -- -- 53
2019-07-22 21:00:00 26.6 4 Oeste 25 Sur 0 -- -- 39
2019-07-22 20:00:00 29.3 14 Sur 34 Sudeste 0 -- -- 28
2019-07-22 19:00:00 31.2 11 Sudeste 23 Sur 0 -- -- 25
2019-07-22 18:00:00 31.5 13 Sur 27 Sudoeste 0 -- -- 25
2019-07-22 17:00:00 31.7 16 Sur 30 Sur 0 -- -- 30
2019-07-22 16:00:00 31.2 15 Sur 31 Sur 0 -- -- 30
2019-07-22 15:00:00 30.7 13 Sudoeste 28 Sur 0 -- -- 33
2019-07-22 14:00:00 29.6 10 Sudoeste 21 Sudoeste 0 -- -- 33
2019-07-22 13:00:00 28.4 11 Sudoeste 23 Sur 0 -- -- 36
2019-07-22 12:00:00 26.5 13 Sur 22 Sur 0 -- -- 39
2019-07-22 11:00:00 25.2 10 Sur 16 Sudeste 0 -- -- 42
2019-07-22 10:00:00 22.9 0 Calma 9 Norte 0 -- -- 63
2019-07-22 09:00:00 18.1 6 Norte 13 Norte 0 -- -- 82
2019-07-22 08:00:00 15 7 Norte 13 Norte 0 -- -- 90
2019-07-22 07:00:00 13.8 9 Norte 12 Norte 0 -- -- 92
2019-07-22 06:00:00 14.2 7 Norte 13 Norte 0 -- -- 92
2019-07-22 05:00:00 14.7 9 Norte 14 Norte 0 -- -- 91
2019-07-22 04:00:00 15.4 11 Norte 14 Norte 0 -- -- 89
2019-07-22 03:00:00 16.5 7 Norte 12 Norte 0 -- -- 88
2019-07-22 02:00:00 17 10 Norte 15 Norte 0 -- -- 87
2019-07-22 01:00:00 16.9 8 Norte 15 Norte 0 -- -- 86
2019-07-22 00:00:00 16.7 6 Norte 18 Oeste 0 -- -- 85
2019-07-21 23:00:00 16.6 7 Norte 21 Norte 0 -- -- 83
2019-07-21 22:00:00 15.7 15 Norte 27 Noroeste 0.4 -- -- 88
2019-07-21 21:00:00 14.3 25 Norte 62 Oeste 7.6 -- -- 86
2019-07-21 20:00:00 25 12 Nordeste 24 Este 0 -- -- 52
2019-07-21 19:00:00 26.5 8 Nordeste 31 Nordeste 0 -- -- 51
2019-07-21 18:00:00 28.9 13 Este 23 Este 0 -- -- 43
2019-07-21 17:00:00 30.2 9 Sur 21 Sudoeste 0 -- -- 38
2019-07-21 16:00:00 30.1 9 Sudeste 20 Sur 0 -- -- 35
2019-07-21 15:00:00 29.8 12 Sur 24 Sudoeste 0 -- -- 40
2019-07-21 14:00:00 28.5 9 Sur 21 Sur 0 -- -- 40
2019-07-21 13:00:00 27.3 9 Sur 21 Sudoeste 0 -- -- 47
2019-07-21 12:00:00 25 13 Sur 26 Sudeste 0 -- -- 46
2019-07-21 11:00:00 23.9 10 Sur 18 Sur 0 -- -- 56
2019-07-21 10:00:00 22.1 8 Sur 14 Sur 0 -- -- 59
2019-07-21 09:00:00 18.9 2 Este 5 Norte 0 -- -- 81
2019-07-21 08:00:00 14.7 4 Norte 9 Norte 0 -- -- 92
2019-07-21 07:00:00 13.8 4 Norte 9 Norte 0 -- -- 92
2019-07-21 06:00:00 14.3 5 Norte 10 Norte 0 -- -- 90
2019-07-21 05:00:00 15.1 5 Norte 10 Norte 0 -- -- 88
2019-07-21 04:00:00 15.9 6 Norte 11 Norte 0 -- -- 86
2019-07-21 03:00:00 16.9 5 Norte 12 Norte 0 -- -- 82
2019-07-21 02:00:00 18 7 Norte 13 Noroeste 0 -- -- 79
2019-07-21 01:00:00 19.1 9 Norte 20 Norte 0 -- -- 77
2019-07-21 00:00:00 19.9 14 Norte 28 Norte 0 -- -- 76